createdAt,value
2019-02-19T00:00:47.387Z,12.80
2019-02-19T00:01:47.374Z,13.10
2019-02-19T00:02:47.364Z,11.10
2019-02-19T00:03:47.356Z,11.00
2019-02-19T00:04:47.378Z,11.60
2019-02-19T00:05:56.312Z,11.70
2019-02-19T00:06:47.360Z,10.60
2019-02-19T00:07:47.307Z,15.50
2019-02-19T00:08:47.302Z,11.00
2019-02-19T00:09:47.286Z,11.40
2019-02-19T00:10:47.274Z,12.00
2019-02-19T00:11:47.304Z,12.90
2019-02-19T00:12:47.251Z,12.30
2019-02-19T00:13:47.243Z,12.90
2019-02-19T00:14:47.230Z,13.00
2019-02-19T00:15:47.218Z,10.90
2019-02-19T00:16:47.210Z,12.30
2019-02-19T00:17:47.210Z,12.40
2019-02-19T00:18:47.185Z,10.00
2019-02-19T00:19:47.172Z,11.40
2019-02-19T00:20:47.160Z,11.60
2019-02-19T00:21:47.155Z,12.80
2019-02-19T00:22:47.150Z,11.50
2019-02-19T00:23:47.140Z,9.60
2019-02-19T00:24:47.119Z,11.90
2019-02-19T00:25:47.110Z,13.20
2019-02-19T00:26:47.094Z,11.20
2019-02-19T00:27:47.082Z,9.50
2019-02-19T00:28:47.115Z,13.80
2019-02-19T00:29:47.063Z,12.10
2019-02-19T00:30:47.049Z,13.40
2019-02-19T00:31:47.039Z,12.50
2019-02-19T00:32:47.047Z,10.70
2019-02-19T00:33:47.023Z,10.10
2019-02-19T00:34:47.024Z,13.90
2019-02-19T00:35:46.993Z,11.10
2019-02-19T00:36:46.992Z,13.30
2019-02-19T00:37:46.973Z,12.00
2019-02-19T00:38:46.972Z,13.20
2019-02-19T00:39:46.962Z,12.10
2019-02-19T00:40:46.958Z,11.40
2019-02-19T00:41:46.926Z,12.00
2019-02-19T00:42:46.915Z,13.30
2019-02-19T00:43:46.903Z,12.00
2019-02-19T00:44:46.894Z,10.00
2019-02-19T00:45:46.912Z,10.20
2019-02-19T00:46:46.878Z,13.80
2019-02-19T00:47:46.858Z,13.40
2019-02-19T00:48:46.847Z,12.30
2019-02-19T00:49:46.841Z,12.90
2019-02-19T00:50:46.827Z,10.40
2019-02-19T00:51:46.841Z,12.60
2019-02-19T00:52:46.833Z,12.00
2019-02-19T00:53:46.806Z,11.40
2019-02-19T00:54:46.781Z,12.50
2019-02-19T00:55:46.770Z,13.10
2019-02-19T00:56:46.758Z,11.20
2019-02-19T00:57:46.756Z,10.80
2019-02-19T00:58:46.742Z,11.90
2019-02-19T00:59:46.723Z,11.00
2019-02-19T01:00:46.715Z,11.40
2019-02-19T01:01:46.703Z,12.40
2019-02-19T01:02:46.711Z,12.60
2019-02-19T01:03:46.681Z,10.50
2019-02-19T01:04:46.692Z,10.20
2019-02-19T01:05:46.657Z,11.60
2019-02-19T01:06:46.644Z,14.90
2019-02-19T01:07:46.638Z,12.10
2019-02-19T01:08:46.655Z,11.40
2019-02-19T01:09:46.611Z,13.50
2019-02-19T01:10:46.616Z,13.00
2019-02-19T01:11:46.590Z,14.30
2019-02-19T01:12:46.578Z,11.80
2019-02-19T01:13:46.580Z,11.50
2019-02-19T01:14:46.572Z,10.90
2019-02-19T01:15:46.545Z,12.30
2019-02-19T01:16:46.565Z,11.20
2019-02-19T01:17:46.522Z,12.70
2019-02-19T01:18:46.511Z,13.40
2019-02-19T01:19:46.501Z,13.80
2019-02-19T01:20:46.503Z,11.30
2019-02-19T01:21:46.493Z,13.30
2019-02-19T01:22:46.504Z,14.10
2019-02-19T01:23:46.456Z,11.70
2019-02-19T01:24:46.456Z,14.40
2019-02-19T01:25:46.432Z,16.50
2019-02-19T01:26:46.430Z,13.60
2019-02-19T01:27:46.414Z,14.70
2019-02-19T01:28:46.405Z,11.40
2019-02-19T01:29:46.388Z,13.60
2019-02-19T01:30:46.375Z,13.50
2019-02-19T01:31:46.379Z,12.50
2019-02-19T01:32:46.354Z,12.90
2019-02-19T01:33:46.366Z,13.80
2019-02-19T01:34:46.334Z,13.70
2019-02-19T01:35:46.322Z,14.70
2019-02-19T01:36:46.339Z,15.40
2019-02-19T01:37:46.309Z,13.60
2019-02-19T01:38:46.286Z,12.80
2019-02-19T01:39:47.860Z,14.40
2019-02-19T01:40:46.262Z,15.10
2019-02-19T01:41:46.251Z,15.30
2019-02-19T01:42:46.242Z,16.10
2019-02-19T01:43:46.244Z,18.20
2019-02-19T01:44:46.235Z,14.70
2019-02-19T01:45:46.214Z,17.30
2019-02-19T01:46:46.195Z,19.60
2019-02-19T01:47:46.189Z,16.70
2019-02-19T01:48:46.173Z,21.80
2019-02-19T01:49:46.161Z,18.10
2019-02-19T01:50:46.160Z,16.80
2019-02-19T01:51:46.150Z,18.10
2019-02-19T01:52:46.131Z,22.30
2019-02-19T01:53:46.116Z,20.20
2019-02-19T01:54:46.124Z,20.00
2019-02-19T01:55:46.098Z,17.00
2019-02-19T01:56:46.082Z,19.30
2019-02-19T01:57:46.087Z,18.40
2019-02-19T01:58:46.061Z,21.60
2019-02-19T01:59:46.048Z,20.20
2019-02-19T02:00:46.052Z,19.70
2019-02-19T02:01:46.027Z,23.40
2019-02-19T02:02:46.069Z,23.60
2019-02-19T02:03:46.005Z,21.30
2019-02-19T02:04:46.025Z,20.90
2019-02-19T02:05:46.017Z,21.10
2019-02-19T02:06:46.016Z,21.00
2019-02-19T02:07:45.967Z,28.50
2019-02-19T02:08:45.974Z,21.30
2019-02-19T02:09:45.941Z,26.10
2019-02-19T02:10:45.925Z,20.50
2019-02-19T02:11:45.931Z,22.70
2019-02-19T02:12:45.908Z,22.30
2019-02-19T02:13:45.891Z,23.20
2019-02-19T02:14:45.879Z,21.40
2019-02-19T02:15:45.872Z,24.60
2019-02-19T02:16:45.857Z,24.80
2019-02-19T02:17:45.858Z,25.70
2019-02-19T02:18:45.842Z,23.70
2019-02-19T02:19:45.838Z,25.10
2019-02-19T02:20:45.812Z,23.50
2019-02-19T02:21:45.801Z,28.30
2019-02-19T02:22:45.793Z,22.80
2019-02-19T02:23:45.789Z,23.50
2019-02-19T02:24:45.798Z,22.20
2019-02-19T02:25:45.757Z,24.80
2019-02-19T02:26:45.746Z,24.80
2019-02-19T02:27:45.746Z,25.20
2019-02-19T02:28:45.722Z,23.30
2019-02-19T02:29:45.711Z,22.30
2019-02-19T02:30:45.709Z,23.50
2019-02-19T02:31:45.694Z,26.30
2019-02-19T02:32:45.681Z,22.40
2019-02-19T02:33:45.709Z,25.40
2019-02-19T02:34:45.662Z,21.00
2019-02-19T02:35:45.645Z,24.10
2019-02-19T02:36:45.653Z,24.80
2019-02-19T02:37:45.626Z,29.10
2019-02-19T02:38:45.615Z,25.00
2019-02-19T02:39:45.621Z,25.70
2019-02-19T02:40:45.591Z,26.30
2019-02-19T02:41:45.590Z,25.30
2019-02-19T02:42:45.569Z,27.90
2019-02-19T02:43:45.563Z,27.30
2019-02-19T02:44:45.546Z,24.10
2019-02-19T02:45:52.665Z,23.90
2019-02-19T02:46:46.548Z,27.40
2019-02-19T02:47:45.518Z,26.20
2019-02-19T02:48:45.543Z,28.40
2019-02-19T02:49:45.528Z,25.90
2019-02-19T02:50:45.513Z,25.40
2019-02-19T02:51:45.466Z,27.20
2019-02-19T02:52:45.492Z,28.50
2019-02-19T02:53:45.479Z,27.20
2019-02-19T02:54:45.457Z,26.30
2019-02-19T02:55:45.424Z,24.90
2019-02-19T02:56:45.430Z,27.90
2019-02-19T02:57:45.404Z,28.60
2019-02-19T02:58:45.407Z,25.20
2019-02-19T02:59:45.375Z,29.10
2019-02-19T03:00:45.390Z,27.40
2019-02-19T03:01:45.388Z,27.60
2019-02-19T03:02:45.382Z,30.40
2019-02-19T03:03:45.333Z,33.40
2019-02-19T03:04:45.331Z,30.70
2019-02-19T03:05:45.317Z,31.00
2019-02-19T03:06:45.324Z,32.30
2019-02-19T03:07:45.283Z,30.80
2019-02-19T03:08:45.323Z,32.90
2019-02-19T03:09:45.281Z,31.50
2019-02-19T03:10:45.290Z,26.50
2019-02-19T03:11:45.242Z,30.60
2019-02-19T03:12:45.252Z,31.00
2019-02-19T03:13:45.257Z,34.10
2019-02-19T03:14:45.208Z,32.90
2019-02-19T03:15:45.200Z,29.90
2019-02-19T03:16:45.209Z,32.50
2019-02-19T03:17:45.211Z,29.70
2019-02-19T03:18:45.174Z,33.60
2019-02-19T03:19:45.175Z,33.30
2019-02-19T03:20:45.146Z,30.60
2019-02-19T03:21:45.147Z,28.80
2019-02-19T03:22:45.139Z,27.90
2019-02-19T03:23:45.108Z,26.70
2019-02-19T03:24:45.108Z,27.80
2019-02-19T03:25:45.114Z,29.50
2019-02-19T03:26:45.073Z,26.50
2019-02-19T03:27:45.063Z,29.90
2019-02-19T03:28:45.051Z,30.20
2019-02-19T03:29:45.037Z,29.10
2019-02-19T03:30:45.032Z,31.00
2019-02-19T03:31:45.024Z,26.00
2019-02-19T03:32:45.025Z,30.70
2019-02-19T03:33:45.004Z,30.70
2019-02-19T03:34:44.985Z,27.00
2019-02-19T03:35:44.968Z,28.30
2019-02-19T03:36:44.971Z,31.60
2019-02-19T03:37:44.957Z,28.90
2019-02-19T03:38:44.956Z,27.70
2019-02-19T03:39:44.958Z,27.70
2019-02-19T03:40:44.950Z,26.80
2019-02-19T03:41:44.918Z,26.70
2019-02-19T03:42:44.930Z,27.50
2019-02-19T03:43:44.902Z,27.20
2019-02-19T03:44:44.888Z,29.00
2019-02-19T03:45:44.875Z,28.80
2019-02-19T03:46:44.899Z,28.20
2019-02-19T03:47:44.892Z,28.00
2019-02-19T03:48:44.862Z,27.50
2019-02-19T03:49:44.820Z,27.30
2019-02-19T03:50:44.825Z,26.20
2019-02-19T03:51:44.816Z,26.80
2019-02-19T03:52:44.783Z,25.50
2019-02-19T03:53:44.770Z,25.40
2019-02-19T03:54:44.801Z,24.50
2019-02-19T03:55:44.778Z,21.60
2019-02-19T03:56:44.755Z,25.80
2019-02-19T03:57:44.726Z,27.90
2019-02-19T03:58:44.727Z,22.80
2019-02-19T03:59:44.704Z,28.10
2019-02-19T04:00:44.752Z,22.70
2019-02-19T04:01:44.722Z,26.00
2019-02-19T04:02:44.683Z,25.20
2019-02-19T04:03:44.656Z,24.90
2019-02-19T04:04:44.654Z,26.00
2019-02-19T04:05:44.667Z,26.30
2019-02-19T04:06:44.641Z,23.80
2019-02-19T04:07:44.611Z,25.70
2019-02-19T04:08:44.611Z,27.40
2019-02-19T04:09:44.589Z,26.90
2019-02-19T04:10:44.578Z,25.30
2019-02-19T04:11:44.645Z,31.20
2019-02-19T04:12:44.574Z,25.80
2019-02-19T04:13:44.574Z,26.20
2019-02-19T04:14:44.538Z,26.20
2019-02-19T04:15:44.526Z,25.60
2019-02-19T04:16:44.561Z,25.90
2019-02-19T04:17:44.514Z,27.40
2019-02-19T04:18:44.491Z,28.70
2019-02-19T04:19:44.522Z,27.30
2019-02-19T04:20:44.460Z,25.90
2019-02-19T04:21:44.469Z,24.90
2019-02-19T04:22:44.441Z,25.60
2019-02-19T04:23:44.431Z,28.30
2019-02-19T04:24:44.440Z,24.90
2019-02-19T04:25:44.405Z,26.20
2019-02-19T04:26:44.392Z,27.90
2019-02-19T04:27:44.382Z,23.20
2019-02-19T04:28:44.370Z,27.00
2019-02-19T04:29:44.364Z,28.60
2019-02-19T04:30:44.368Z,27.90
2019-02-19T04:31:44.336Z,25.80
2019-02-19T04:32:44.326Z,25.40
2019-02-19T04:33:44.314Z,25.10
2019-02-19T04:34:44.302Z,26.50
2019-02-19T04:35:44.319Z,28.00
2019-02-19T04:36:44.318Z,27.80
2019-02-19T04:37:44.270Z,24.70
2019-02-19T04:38:44.268Z,28.30
2019-02-19T04:39:44.247Z,26.40
2019-02-19T04:40:44.237Z,29.10
2019-02-19T04:41:44.240Z,29.50
2019-02-19T04:42:44.256Z,26.40
2019-02-19T04:43:44.217Z,26.50
2019-02-19T04:44:44.198Z,28.70
2019-02-19T04:45:44.197Z,31.30
2019-02-19T04:46:44.168Z,29.10
2019-02-19T04:47:44.169Z,26.90
2019-02-19T04:48:44.192Z,23.50
2019-02-19T04:49:44.134Z,29.40
2019-02-19T04:50:44.124Z,27.70
2019-02-19T04:51:44.113Z,27.00
2019-02-19T04:52:44.124Z,29.40
2019-02-19T04:53:44.090Z,27.10
2019-02-19T04:54:44.085Z,33.50
2019-02-19T04:55:44.133Z,28.00
2019-02-19T04:56:44.093Z,30.10
2019-02-19T04:57:44.045Z,27.00
2019-02-19T04:58:44.056Z,32.90
2019-02-19T04:59:44.023Z,30.70
2019-02-19T05:00:44.011Z,29.20
2019-02-19T05:01:44.014Z,26.60
2019-02-19T05:02:43.988Z,28.90
2019-02-19T05:03:43.991Z,28.80
2019-02-19T05:04:43.971Z,30.30
2019-02-19T05:05:43.982Z,29.30
2019-02-19T05:06:43.957Z,29.10
2019-02-19T05:07:43.933Z,28.80
2019-02-19T05:08:44.597Z,28.40
2019-02-19T05:09:43.911Z,30.10
2019-02-19T05:10:43.899Z,26.10
2019-02-19T05:11:43.897Z,27.50
2019-02-19T05:12:43.896Z,29.30
2019-02-19T05:13:43.865Z,27.60
2019-02-19T05:14:43.853Z,30.10
2019-02-19T05:15:43.892Z,28.70
2019-02-19T05:16:43.832Z,29.60
2019-02-19T05:17:43.837Z,29.30
2019-02-19T05:18:43.820Z,32.30
2019-02-19T05:19:43.799Z,28.90
2019-02-19T05:20:43.786Z,28.60
2019-02-19T05:21:43.776Z,27.80
2019-02-19T05:22:43.762Z,28.30
2019-02-19T05:23:43.770Z,30.50
2019-02-19T05:24:43.750Z,28.80
2019-02-19T05:25:43.743Z,28.90
2019-02-19T05:26:43.721Z,26.30
2019-02-19T05:27:43.712Z,28.70
2019-02-19T05:28:43.704Z,28.30
2019-02-19T05:29:43.700Z,28.70
2019-02-19T05:30:43.704Z,26.80
2019-02-19T05:31:43.662Z,30.50
2019-02-19T05:32:43.663Z,28.50
2019-02-19T05:33:43.641Z,28.70
2019-02-19T05:34:43.628Z,32.70
2019-02-19T05:35:43.628Z,27.00
2019-02-19T05:36:43.635Z,29.30
2019-02-19T05:37:43.593Z,27.50
2019-02-19T05:38:43.586Z,31.20
2019-02-19T05:39:43.588Z,26.70
2019-02-19T05:40:43.610Z,30.40
2019-02-19T05:41:43.571Z,27.30
2019-02-19T05:42:43.557Z,27.80
2019-02-19T05:43:43.532Z,27.40
2019-02-19T05:44:43.534Z,27.40
2019-02-19T05:45:43.546Z,28.00
2019-02-19T05:46:49.733Z,28.20
2019-02-19T05:47:44.514Z,29.70
2019-02-19T05:48:43.478Z,27.00
2019-02-19T05:49:43.548Z,26.40
2019-02-19T05:50:43.460Z,28.40
2019-02-19T05:51:43.443Z,26.10
2019-02-19T05:52:43.440Z,26.30
2019-02-19T05:53:44.857Z,26.50
2019-02-19T05:54:43.411Z,26.90
2019-02-19T05:55:43.410Z,27.70
2019-02-19T05:56:43.394Z,27.20
2019-02-19T05:57:43.375Z,28.50
2019-02-19T05:58:43.368Z,29.40
2019-02-19T05:59:43.354Z,27.70
2019-02-19T06:00:43.401Z,29.50
2019-02-19T06:01:43.363Z,25.30
2019-02-19T06:02:43.348Z,24.80
2019-02-19T06:03:43.315Z,28.80
2019-02-19T06:04:43.299Z,25.50
2019-02-19T06:05:43.318Z,28.30
2019-02-19T06:06:43.302Z,27.80
2019-02-19T06:07:43.272Z,27.20
2019-02-19T06:08:43.255Z,28.40
2019-02-19T06:09:43.241Z,28.10
2019-02-19T06:10:44.187Z,27.40
2019-02-19T06:11:43.231Z,28.70
2019-02-19T06:12:43.250Z,30.10
2019-02-19T06:13:43.197Z,26.70
2019-02-19T06:14:43.203Z,29.20
2019-02-19T06:15:43.171Z,30.00
2019-02-19T06:16:43.167Z,29.90
2019-02-19T06:17:43.177Z,31.40
2019-02-19T06:18:43.162Z,28.70
2019-02-19T06:19:43.130Z,24.50
2019-02-19T06:20:43.115Z,25.70
2019-02-19T06:21:43.103Z,31.20
2019-02-19T06:22:43.098Z,29.30
2019-02-19T06:23:43.083Z,29.10
2019-02-19T06:24:43.106Z,32.10
2019-02-19T06:25:43.060Z,28.90
2019-02-19T06:26:43.054Z,29.90
2019-02-19T06:27:43.047Z,29.60
2019-02-19T06:28:43.042Z,28.00
2019-02-19T06:29:43.030Z,28.00
2019-02-19T06:30:43.024Z,29.80
2019-02-19T06:31:42.992Z,28.20
2019-02-19T06:32:42.979Z,28.10
2019-02-19T06:33:42.966Z,31.90
2019-02-19T06:34:42.974Z,25.00
2019-02-19T06:35:43.026Z,27.40
2019-02-19T06:36:42.941Z,29.70
2019-02-19T06:37:42.951Z,28.50
2019-02-19T06:38:42.910Z,29.80
2019-02-19T06:39:42.897Z,31.80
2019-02-19T06:40:42.891Z,29.70
2019-02-19T06:41:42.896Z,28.60
2019-02-19T06:42:42.865Z,28.70
2019-02-19T06:43:42.859Z,29.50
2019-02-19T06:44:42.871Z,29.40
2019-02-19T06:45:42.835Z,31.20
2019-02-19T06:46:42.820Z,31.80
2019-02-19T06:47:42.826Z,30.70
2019-02-19T06:48:42.801Z,30.60
2019-02-19T06:49:42.836Z,28.40
2019-02-19T06:50:42.779Z,30.90
2019-02-19T06:51:42.770Z,28.70
2019-02-19T06:52:42.754Z,33.60
2019-02-19T06:53:42.764Z,28.90
2019-02-19T06:54:42.735Z,32.50
2019-02-19T06:55:42.722Z,32.40
2019-02-19T06:56:42.745Z,29.90
2019-02-19T06:57:42.699Z,31.90
2019-02-19T06:58:42.695Z,27.00
2019-02-19T06:59:42.684Z,33.30
2019-02-19T07:00:42.667Z,27.60
2019-02-19T07:01:42.653Z,28.60
2019-02-19T07:02:42.638Z,31.80
2019-02-19T07:03:42.681Z,30.10
2019-02-19T07:04:42.643Z,29.90
2019-02-19T07:05:42.608Z,28.90
2019-02-19T07:06:42.596Z,31.90
2019-02-19T07:07:42.587Z,29.20
2019-02-19T07:08:42.576Z,32.00
2019-02-19T07:09:42.604Z,31.10
2019-02-19T07:10:42.566Z,28.60
2019-02-19T07:11:42.541Z,29.60
2019-02-19T07:12:42.580Z,28.00
2019-02-19T07:13:42.548Z,29.10
2019-02-19T07:14:42.503Z,25.90
2019-02-19T07:15:42.515Z,31.10
2019-02-19T07:16:42.491Z,28.20
2019-02-19T07:17:42.482Z,28.30
2019-02-19T07:18:42.469Z,26.20
2019-02-19T07:19:42.451Z,28.20
2019-02-19T07:20:42.443Z,26.90
2019-02-19T07:21:42.460Z,30.00
2019-02-19T07:22:42.428Z,27.10
2019-02-19T07:23:42.403Z,29.40
2019-02-19T07:24:42.392Z,26.10
2019-02-19T07:25:42.426Z,25.60
2019-02-19T07:26:42.379Z,27.30
2019-02-19T07:27:42.362Z,24.60
2019-02-19T07:28:42.395Z,30.70
2019-02-19T07:29:42.342Z,30.20
2019-02-19T07:30:42.328Z,32.10
2019-02-19T07:31:42.328Z,22.50
2019-02-19T07:32:42.304Z,24.60
2019-02-19T07:33:42.316Z,25.30
2019-02-19T07:34:42.281Z,24.70
2019-02-19T07:35:42.272Z,28.40
2019-02-19T07:36:42.287Z,31.60
2019-02-19T07:37:42.252Z,29.00
2019-02-19T07:38:42.243Z,24.40
2019-02-19T07:39:42.253Z,23.90
2019-02-19T07:40:42.215Z,26.80
2019-02-19T07:41:42.204Z,25.10
2019-02-19T07:42:42.190Z,32.40
2019-02-19T07:43:42.202Z,24.50
2019-02-19T07:44:42.167Z,25.10
2019-02-19T07:45:42.175Z,26.10
2019-02-19T07:46:42.146Z,25.70
2019-02-19T07:47:42.134Z,21.70
2019-02-19T07:48:42.121Z,24.90
2019-02-19T07:49:42.175Z,25.40
2019-02-19T07:50:42.100Z,25.10
2019-02-19T07:51:42.755Z,26.50
2019-02-19T07:52:42.077Z,23.70
2019-02-19T07:53:42.073Z,24.10
2019-02-19T07:54:42.059Z,20.10
2019-02-19T07:55:42.078Z,26.70
2019-02-19T07:56:42.072Z,25.00
2019-02-19T07:57:42.930Z,26.70
2019-02-19T07:58:42.015Z,23.10
2019-02-19T07:59:42.000Z,24.60
2019-02-19T08:00:41.996Z,29.70
2019-02-19T08:01:42.018Z,24.70
2019-02-19T08:02:41.976Z,21.20
2019-02-19T08:03:41.957Z,24.70
2019-02-19T08:04:41.945Z,28.20
2019-02-19T08:05:41.933Z,20.30
2019-02-19T08:06:41.931Z,22.60
2019-02-19T08:07:41.944Z,25.20
2019-02-19T08:08:41.900Z,24.40
2019-02-19T08:09:41.889Z,27.40
2019-02-19T08:10:41.876Z,24.40
2019-02-19T08:11:41.869Z,28.70
2019-02-19T08:12:41.856Z,21.60
2019-02-19T08:13:41.874Z,26.40
2019-02-19T08:14:41.838Z,26.60
2019-02-19T08:15:41.820Z,25.30
2019-02-19T08:16:41.813Z,19.40
2019-02-19T08:17:41.803Z,25.50
2019-02-19T08:18:41.793Z,22.50
2019-02-19T08:19:41.806Z,21.90
2019-02-19T08:20:41.771Z,23.70
2019-02-19T08:21:41.756Z,21.80
2019-02-19T08:22:41.742Z,23.40
2019-02-19T08:23:41.733Z,23.90
2019-02-19T08:24:41.722Z,21.90
2019-02-19T08:25:41.752Z,23.50
2019-02-19T08:26:41.697Z,22.70
2019-02-19T08:27:41.686Z,20.60
2019-02-19T08:28:41.676Z,23.50
2019-02-19T08:29:41.665Z,19.80
2019-02-19T08:30:41.655Z,19.70
2019-02-19T08:31:41.680Z,21.30
2019-02-19T08:32:41.630Z,22.90
2019-02-19T08:33:41.629Z,25.90
2019-02-19T08:34:41.609Z,20.30
2019-02-19T08:35:41.603Z,18.70
2019-02-19T08:36:41.585Z,23.20
2019-02-19T08:37:41.622Z,21.60
2019-02-19T08:38:42.997Z,17.60
2019-02-19T08:39:41.560Z,15.60
2019-02-19T08:40:41.542Z,19.20
2019-02-19T08:41:41.529Z,17.60
2019-02-19T08:42:41.532Z,18.50
2019-02-19T08:43:41.528Z,16.00
2019-02-19T08:44:41.523Z,19.40
2019-02-19T08:45:41.483Z,16.70
2019-02-19T08:46:41.471Z,15.80
2019-02-19T08:47:42.938Z,16.80
2019-02-19T08:48:41.480Z,18.40
2019-02-19T08:49:41.456Z,18.10
2019-02-19T08:50:41.442Z,17.10
2019-02-19T08:51:41.425Z,16.10
2019-02-19T08:52:41.407Z,23.20
2019-02-19T08:53:41.396Z,17.50
2019-02-19T08:54:41.381Z,18.10
2019-02-19T08:55:41.383Z,17.50
2019-02-19T08:56:41.390Z,20.70
2019-02-19T08:57:41.348Z,16.20
2019-02-19T08:58:41.336Z,20.70
2019-02-19T08:59:41.324Z,17.10
2019-02-19T09:00:41.312Z,17.20
2019-02-19T09:01:50.469Z,15.20
2019-02-19T09:02:41.294Z,14.30
2019-02-19T09:03:48.907Z,15.20
2019-02-19T09:04:49.001Z,16.00
2019-02-19T09:05:48.967Z,19.60
2019-02-19T09:06:48.965Z,16.30
2019-02-19T09:07:41.288Z,16.50
2019-02-19T09:08:48.402Z,19.20
2019-02-19T09:09:48.943Z,17.00
2019-02-19T09:10:41.214Z,14.70
2019-02-19T09:11:48.376Z,15.70
2019-02-19T09:12:41.234Z,14.00
2019-02-19T09:13:41.170Z,19.50
2019-02-19T09:14:41.211Z,15.00
2019-02-19T09:15:41.150Z,15.00
2019-02-19T09:16:41.135Z,17.40
2019-02-19T09:17:41.199Z,14.00
2019-02-19T09:18:41.206Z,18.10
2019-02-19T09:19:41.241Z,19.10
2019-02-19T09:20:41.100Z,13.00
2019-02-19T09:21:41.114Z,16.50
2019-02-19T09:22:41.115Z,14.80
2019-02-19T09:23:42.315Z,14.80
2019-02-19T09:24:41.046Z,15.90
2019-02-19T09:25:41.068Z,17.50
2019-02-19T09:26:41.027Z,21.80
2019-02-19T09:27:41.025Z,18.10
2019-02-19T09:28:41.001Z,16.20
2019-02-19T09:29:40.990Z,15.80
2019-02-19T09:30:41.010Z,16.70
2019-02-19T09:31:40.980Z,15.00
2019-02-19T09:32:40.959Z,17.30
2019-02-19T09:33:40.958Z,15.10
2019-02-19T09:34:40.938Z,17.40
2019-02-19T09:35:40.923Z,19.60
2019-02-19T09:36:40.950Z,13.50
2019-02-19T09:37:40.903Z,18.60
2019-02-19T09:38:40.902Z,16.00
2019-02-19T09:39:40.891Z,21.40
2019-02-19T09:40:40.868Z,16.90
2019-02-19T09:41:40.857Z,17.10
2019-02-19T09:42:40.876Z,15.10
2019-02-19T09:43:40.834Z,14.70
2019-02-19T09:44:40.839Z,18.00
2019-02-19T09:45:40.811Z,14.60
2019-02-19T09:46:40.801Z,17.50
2019-02-19T09:47:40.794Z,14.00
2019-02-19T09:48:40.817Z,13.10
2019-02-19T09:49:40.768Z,16.70
2019-02-19T09:50:40.766Z,15.00
2019-02-19T09:51:40.758Z,18.80
2019-02-19T09:52:40.747Z,15.80
2019-02-19T09:53:40.743Z,15.60
2019-02-19T09:54:40.741Z,12.50
2019-02-19T09:55:40.705Z,11.80
2019-02-19T09:56:40.689Z,17.70
2019-02-19T09:57:40.745Z,12.60
2019-02-19T09:58:40.667Z,16.20
2019-02-19T09:59:40.659Z,13.90
2019-02-19T10:00:40.685Z,16.80
2019-02-19T10:01:40.635Z,17.50
2019-02-19T10:02:40.623Z,15.60
2019-02-19T10:03:40.627Z,15.40
2019-02-19T10:04:40.601Z,11.40
2019-02-19T10:05:40.589Z,18.40
2019-02-19T10:06:40.608Z,15.30
2019-02-19T10:07:40.582Z,14.00
2019-02-19T10:08:40.578Z,14.60
2019-02-19T10:09:40.544Z,14.90
2019-02-19T10:10:40.545Z,11.50
2019-02-19T10:11:40.521Z,14.30
2019-02-19T10:12:40.539Z,13.60
2019-02-19T10:13:40.500Z,15.20
2019-02-19T10:14:40.507Z,16.30
2019-02-19T10:15:40.478Z,12.70
2019-02-19T10:16:41.829Z,15.40
2019-02-19T10:17:40.464Z,14.30
2019-02-19T10:18:40.460Z,10.60
2019-02-19T10:19:40.457Z,14.30
2019-02-19T10:20:40.422Z,14.00
2019-02-19T10:21:40.414Z,16.40
2019-02-19T10:22:40.403Z,14.40
2019-02-19T10:23:40.389Z,13.90
2019-02-19T10:24:40.408Z,18.10
2019-02-19T10:25:40.381Z,16.10
2019-02-19T10:26:40.802Z,14.90
2019-02-19T10:27:40.344Z,13.40
2019-02-19T10:28:40.334Z,13.20
2019-02-19T10:29:40.322Z,11.20
2019-02-19T10:30:40.354Z,11.40
2019-02-19T10:31:40.316Z,15.30
2019-02-19T10:32:40.289Z,16.00
2019-02-19T10:33:40.277Z,12.70
2019-02-19T10:34:40.266Z,12.40
2019-02-19T10:35:40.258Z,16.50
2019-02-19T10:36:40.297Z,12.10
2019-02-19T10:37:40.259Z,16.10
2019-02-19T10:38:40.222Z,14.00
2019-02-19T10:39:40.225Z,13.90
2019-02-19T10:40:40.200Z,12.60
2019-02-19T10:41:40.200Z,13.80
2019-02-19T10:42:40.210Z,16.00
2019-02-19T10:43:40.178Z,14.80
2019-02-19T10:44:40.154Z,13.40
2019-02-19T10:45:40.154Z,16.00
2019-02-19T10:46:40.138Z,15.30
2019-02-19T10:47:40.126Z,15.50
2019-02-19T10:48:40.151Z,17.50
2019-02-19T10:49:40.115Z,15.90
2019-02-19T10:50:40.101Z,16.90
2019-02-19T10:51:40.076Z,16.60
2019-02-19T10:52:40.067Z,17.10
2019-02-19T10:53:40.054Z,13.80
2019-02-19T10:54:40.090Z,17.20
2019-02-19T10:55:40.031Z,16.50
2019-02-19T10:56:40.037Z,15.30
2019-02-19T10:57:40.010Z,12.80
2019-02-19T10:58:40.024Z,11.90
2019-02-19T10:59:39.991Z,17.60
2019-02-19T11:00:39.995Z,12.20
2019-02-19T11:01:40.008Z,12.30
2019-02-19T11:02:39.956Z,16.30
2019-02-19T11:03:39.944Z,16.50
2019-02-19T11:04:40.081Z,16.30
2019-02-19T11:05:39.920Z,13.00
2019-02-19T11:06:39.955Z,15.60
2019-02-19T11:07:39.915Z,14.20
2019-02-19T11:08:39.887Z,14.20
2019-02-19T11:09:39.873Z,14.60
2019-02-19T11:10:39.862Z,23.20
2019-02-19T11:11:39.851Z,16.00
2019-02-19T11:12:39.900Z,17.80
2019-02-19T11:13:39.840Z,16.80
2019-02-19T11:14:39.823Z,17.10
2019-02-19T11:15:39.809Z,16.40
2019-02-19T11:16:39.799Z,19.00
2019-02-19T11:17:39.785Z,13.70
2019-02-19T11:18:39.827Z,14.70
2019-02-19T11:19:39.763Z,16.80
2019-02-19T11:20:39.752Z,14.30
2019-02-19T11:21:39.738Z,13.40
2019-02-19T11:22:39.761Z,16.40
2019-02-19T11:23:39.720Z,16.70
2019-02-19T11:24:39.745Z,16.20
2019-02-19T11:25:39.706Z,13.90
2019-02-19T11:26:39.683Z,15.10
2019-02-19T11:27:39.671Z,16.90
2019-02-19T11:28:41.065Z,14.50
2019-02-19T11:29:39.650Z,12.40
2019-02-19T11:30:39.683Z,15.70
2019-02-19T11:31:39.645Z,13.50
2019-02-19T11:32:39.616Z,13.30
2019-02-19T11:33:39.614Z,13.00
2019-02-19T11:34:39.592Z,13.90
2019-02-19T11:35:39.580Z,15.20
2019-02-19T11:36:39.606Z,14.30
2019-02-19T11:37:39.568Z,14.20
2019-02-19T11:38:39.552Z,12.80
2019-02-19T11:39:39.534Z,14.60
2019-02-19T11:40:39.538Z,16.00
2019-02-19T11:41:39.514Z,16.00
2019-02-19T11:42:39.542Z,17.10
2019-02-19T11:43:39.490Z,16.30
2019-02-19T11:44:39.480Z,15.60
2019-02-19T11:45:39.468Z,18.00
2019-02-19T11:46:39.456Z,15.00
2019-02-19T11:47:39.444Z,17.50
2019-02-19T11:48:39.476Z,18.60
2019-02-19T11:49:39.424Z,18.50
2019-02-19T11:50:39.411Z,16.10
2019-02-19T11:51:39.402Z,16.50
2019-02-19T11:52:39.389Z,15.60
2019-02-19T11:53:39.378Z,17.10
2019-02-19T11:54:39.430Z,16.30
2019-02-19T11:55:39.363Z,21.10
2019-02-19T11:56:39.342Z,16.90
2019-02-19T11:57:39.337Z,15.60
2019-02-19T11:58:39.320Z,17.30
2019-02-19T11:59:39.319Z,17.50
2019-02-19T12:00:39.351Z,17.40
2019-02-19T12:01:39.289Z,18.60
2019-02-19T12:02:39.279Z,17.00
2019-02-19T12:03:39.265Z,16.60
2019-02-19T12:04:39.254Z,17.70
2019-02-19T12:05:39.241Z,18.80
2019-02-19T12:06:39.292Z,18.50
2019-02-19T12:07:39.220Z,19.70
2019-02-19T12:08:39.526Z,15.80
2019-02-19T12:09:39.200Z,14.40
2019-02-19T12:10:39.187Z,19.80
2019-02-19T12:11:39.253Z,16.00
2019-02-19T12:12:39.164Z,15.80
2019-02-19T12:13:39.153Z,13.30
2019-02-19T12:14:39.143Z,14.50
2019-02-19T12:15:39.141Z,11.30
2019-02-19T12:16:39.122Z,14.60
2019-02-19T12:17:39.160Z,15.80
2019-02-19T12:18:45.855Z,13.80
2019-02-19T12:19:40.092Z,14.40
2019-02-19T12:20:39.080Z,16.70
2019-02-19T12:21:39.063Z,13.50
2019-02-19T12:22:39.066Z,15.20
2019-02-19T12:23:39.075Z,12.80
2019-02-19T12:24:39.034Z,14.20
2019-02-19T12:25:39.031Z,14.10
2019-02-19T12:26:39.013Z,14.60
2019-02-19T12:27:38.997Z,15.70
2019-02-19T12:28:38.995Z,17.30
2019-02-19T12:29:39.009Z,12.20
2019-02-19T12:30:38.995Z,13.60
2019-02-19T12:31:38.951Z,14.90
2019-02-19T12:32:38.953Z,18.40
2019-02-19T12:33:38.931Z,16.30
2019-02-19T12:34:38.927Z,23.10
2019-02-19T12:35:38.938Z,15.60
2019-02-19T12:36:38.905Z,14.70
2019-02-19T12:37:38.883Z,15.70
2019-02-19T12:38:38.903Z,15.20
2019-02-19T12:39:38.865Z,16.00
2019-02-19T12:40:38.853Z,14.70
2019-02-19T12:41:38.949Z,15.00
2019-02-19T12:42:38.827Z,14.70
2019-02-19T12:43:38.816Z,16.00
2019-02-19T12:44:38.824Z,13.50
2019-02-19T12:45:38.796Z,13.10
2019-02-19T12:46:38.785Z,20.00
2019-02-19T12:47:38.819Z,13.10
2019-02-19T12:48:38.760Z,14.60
2019-02-19T12:49:38.749Z,14.30
2019-02-19T12:50:38.751Z,14.80
2019-02-19T12:51:38.728Z,13.40
2019-02-19T12:52:38.714Z,18.60